Latest Weather Observations for Perth

IDW60801

Issued at 7:05 pm WST Thursday 28 August 2014 (issued every 30 minutes, with the page automatically refreshed every 10 minutes)

About weather observations | Map of weather stations | Latest weather observations for WA | Other Formats
Station Details ID: 009225 Name: PERTH METRO Lat: -31.92 Lon: 115.87 Height: 24.9 m
Data from the previous 72 hours. | See also: Recent months at Perth
Date/Time
WST
Temp
°C
App
Temp
°C
Dew
Point
Rel
Hum
%
Delta-T
°C
Wind Press
QNH
hPa
Press
MSL
hPa
Rain
since 9 am
mm
Dir
 
Spd
km/h
Gust
km/h
Spd
kts
Gust
kts
28/07:00pm 19.3 19.8 15.6 79 2.2 NW 7 13 4 7 1015.3 1015.3 0.0
28/06:30pm 19.7 20.0 14.9 74 2.8 NNW 7 15 4 8 1015.1 1015.1 0.0
28/06:00pm 19.9 19.9 14.3 70 3.2 NW 7 17 4 9 1015.0 1015.0 0.0
28/05:30pm 20.4 19.1 13.8 66 3.8 NW 13 20 7 11 1014.7 1014.7 0.0
28/05:00pm 20.7 19.9 13.9 65 3.9 WNW 11 20 6 11 1014.7 1014.7 0.0
28/04:30pm 21.1 20.1 13.5 62 4.4 NW 11 22 6 12 1014.6 1014.5 0.0
28/04:00pm 21.4 19.5 13.1 59 4.7 NW 15 30 8 16 1014.6 1014.5 0.0
28/03:30pm 22.3 20.3 11.4 50 6.1 NW 13 24 7 13 1014.6 1014.5 0.0
28/03:00pm 22.2 18.9 9.7 45 6.8 NW 17 30 9 16 1014.7 1014.7 0.0
28/02:30pm 22.8 20.0 9.9 44 7.0 WNW 15 30 8 16 1014.8 1014.8 0.0
28/02:00pm 23.9 20.4 7.1 34 8.7 NW 15 30 8 16 1014.9 1014.9 0.0
28/01:30pm 23.5 20.4 7.2 35 8.5 NW 13 28 7 15 1015.0 1015.0 0.0
28/01:00pm 23.9 19.9 6.7 33 8.9 NW 17 30 9 16 1015.4 1015.4 0.0
28/12:30pm 23.3 19.8 7.0 35 8.4 NW 15 28 8 15 1015.6 1015.6 0.0
28/12:00pm 22.2 19.8 8.7 42 7.2 NNW 11 19 6 10 1016.0 1016.0 0.0
28/11:30am 22.1 19.9 9.3 44 6.9 NNW 11 20 6 11 1016.2 1016.2 0.0
28/11:00am 20.5 18.5 8.8 47 6.2 N 9 17 5 9 1016.3 1016.3 0.0
28/10:30am 18.9 16.5 8.8 52 5.3 N 11 19 6 10 1016.4 1016.4 0.0
28/10:00am 18.0 16.9 10.6 62 4.0 N 7 13 4 7 1016.8 1016.8 0.0
28/09:30am 16.4 14.7 9.8 65 3.5 N 9 17 5 9 1016.8 1016.8 0.0
28/09:00am 15.4 13.6 9.5 68 3.0 NNE 9 13 5 7 1017.1 1017.1 0.0
28/08:30am 14.5 12.3 9.3 71 2.7 N 11 19 6 10 1017.0 1017.0 0.0
28/08:00am 13.9 12.1 9.3 74 2.3 NNE 9 15 5 8 1016.9 1016.9 0.0
28/07:30am 13.1 10.9 9.2 77 2.0 NNE 11 19 6 10 1016.7 1016.7 0.0
28/07:00am 12.5 11.0 9.1 80 1.7 NNE 7 13 4 7 1016.5 1016.5 0.0
28/06:30am 12.2 10.7 9.0 81 1.6 NNE 7 11 4 6 1016.4 1016.4 0.0
28/06:00am 12.4 10.5 9.1 80 1.7 NNE 9 13 5 7 1016.2 1016.2 0.0
28/05:30am 12.6 10.7 9.1 79 1.8 NNE 9 13 5 7 1016.2 1016.2 0.0
28/05:00am 12.6 10.7 9.2 80 1.7 NNE 9 13 5 7 1016.2 1016.2 0.0
28/04:30am 12.4 10.6 9.4 82 1.5 W 9 15 5 8 1016.3 1016.3 0.0
28/04:00am 12.2 10.8 9.6 84 1.3 WSW 7 13 4 7 1016.0 1016.0 0.0
28/03:30am 11.6 10.5 10.0 90 0.8 WSW 6 9 3 5 1016.3 1016.3 0.0
28/03:00am 11.1 11.1 9.7 91 0.7 CALM 0 0 0 0 1016.3 1016.3 0.0
28/02:30am 11.3 11.3 9.9 91 0.7 CALM 0 0 0 0 1016.7 1016.7 0.0
28/02:00am 11.4 11.4 9.8 90 0.8 CALM 0 0 0 0 1017.0 1017.0 0.0
28/01:30am 11.5 11.5 9.9 90 0.8 CALM 0 0 0 0 1017.1 1017.1 0.0
28/01:00am 11.8 11.8 9.9 88 1.0 CALM 0 0 0 0 1017.6 1017.6 0.0
28/12:30am 11.8 10.7 9.9 88 1.0 WSW 6 7 3 4 1017.6 1017.6 0.0
28/12:00am 11.6 10.2 9.7 88 1.0 WSW 7 9 4 5 1017.9 1017.9 0.0
 
Date/Time
WST
Temp
°C
App
Temp
°C
Dew
Point
Rel
Hum
%
Delta-T
°C
Wind Press
QNH
hPa
Press
MSL
hPa
Rain
since 9 am
mm
Dir
 
Spd
km/h
Gust
km/h
Spd
kts
Gust
kts
27/11:30pm 12.0 10.7 10.1 88 1.0 WSW 7 9 4 5 1018.2 1018.2 0.0
27/11:00pm 11.6 11.2 9.7 88 1.0 WSW 2 6 1 3 1018.8 1018.8 0.0
27/10:30pm 12.4 12.5 10.0 85 1.2 CALM 0 0 0 0 1019.2 1019.2 0.0
27/10:00pm 13.5 12.2 10.1 80 1.8 WSW 7 9 4 5 1019.4 1019.4 0.0
27/09:30pm 14.0 12.7 10.0 77 2.1 WSW 7 11 4 6 1019.3 1019.3 0.0
27/09:00pm 13.5 12.4 10.5 82 1.6 WSW 7 9 4 5 1019.5 1019.5 0.0
27/08:30pm 13.1 13.2 10.3 83 1.5 CALM 0 0 0 0 1019.9 1019.9 0.0
27/08:00pm 13.5 13.6 10.3 81 1.7 CALM 0 0 0 0 1020.0 1020.0 0.0
27/07:30pm 14.3 14.4 10.3 77 2.1 CALM 0 0 0 0 1019.8 1019.8 0.0
27/07:00pm 15.0 15.1 10.2 73 2.5 CALM 0 0 0 0 1019.8 1019.8 0.0
27/06:30pm 16.4 16.1 10.0 66 3.4 WSW 2 6 1 3 1020.0 1020.0 0.0
27/06:00pm 17.3 15.6 10.0 62 3.8 WSW 9 17 5 9 1020.0 1020.0 0.0
27/05:30pm 18.0 16.3 9.9 59 4.3 WSW 9 17 5 9 1019.8 1019.8 0.0
27/05:00pm 18.8 16.6 9.3 54 5.0 WSW 11 17 6 9 1019.3 1019.3 0.0
27/04:30pm 19.3 17.1 10.8 58 4.6 WSW 13 20 7 11 1019.4 1019.4 0.0
27/04:00pm 19.9 17.6 10.3 54 5.2 W 13 22 7 12 1019.5 1019.5 0.0
27/03:30pm 20.3 18.0 10.4 53 5.4 W 13 24 7 13 1019.4 1019.4 0.0
27/03:00pm 21.0 19.3 11.3 54 5.4 W 11 19 6 10 1019.2 1019.2 0.0
27/02:30pm 20.5 19.2 12.5 60 4.5 W 11 19 6 10 1018.9 1018.9 0.0
27/02:00pm 20.4 19.1 12.4 60 4.5 WNW 11 20 6 11 1018.9 1018.9 0.0
27/01:30pm 20.8 18.9 11.7 56 5.1 WNW 13 22 7 12 1018.9 1018.9 0.0
27/01:00pm 21.2 20.1 12.1 56 5.1 NW 9 15 5 8 1019.5 1019.5 0.0
27/12:30pm 20.9 19.5 12.1 57 4.9 W 11 19 6 10 1019.9 1019.9 0.0
27/12:00pm 20.1 17.9 12.1 60 4.5 WNW 15 24 8 13 1020.5 1020.5 0.0
27/11:30am 19.8 19.3 12.6 63 4.1 N 7 9 4 5 1020.8 1020.8 0.0
27/11:00am 19.4 19.0 12.9 66 3.7 N 7 11 4 6 1021.0 1021.0 0.0
27/10:30am 18.0 17.5 12.5 70 3.1 ENE 7 13 4 7 1021.3 1021.3 0.0
27/10:00am 17.3 16.8 12.6 74 2.6 ENE 7 13 4 7 1021.6 1021.6 0.0
27/09:30am 15.7 15.0 11.9 78 2.1 NE 7 13 4 7 1022.0 1022.0 0.0
27/09:00am 14.9 14.3 11.7 81 1.7 ENE 6 9 3 5 1021.9 1021.9 0.2
27/08:30am 13.9 13.2 11.4 85 1.3 ENE 6 9 3 5 1022.1 1022.1 0.2
27/08:00am 12.8 12.0 11.2 90 0.8 ENE 6 9 3 5 1022.0 1022.0 0.2
27/07:30am 12.0 11.2 10.9 93 0.6 SSE 6 9 3 5 1021.7 1021.7 0.2
27/07:00am 11.1 11.3 10.5 96 0.3 CALM 0 0 0 0 1021.4 1021.4 0.2
27/06:30am 10.1 10.0 9.3 95 0.4 CALM 0 0 0 0 1021.0 1021.0 0.2
27/06:00am 10.4 10.3 9.5 94 0.4 CALM 0 0 0 0 1020.8 1020.8 0.2
27/05:30am 10.9 10.9 9.7 92 0.6 CALM 0 0 0 0 1020.8 1020.8 0.2
27/05:00am 11.4 11.2 10.3 93 0.6 SSE 2 7 1 4 1020.8 1020.8 0.2
27/04:30am 11.3 11.4 10.0 92 0.7 CALM 0 0 0 0 1020.9 1020.9 0.2
27/04:00am 11.2 11.3 10.1 93 0.6 CALM 0 0 0 0 1021.0 1021.0 0.2
27/03:30am 10.5 10.4 9.4 93 0.5 CALM 0 0 0 0 1021.0 1021.0 0.2
27/03:00am 10.5 10.4 9.3 92 0.6 CALM 0 0 0 0 1021.3 1021.3 0.2
27/02:30am 10.7 10.5 9.0 89 0.8 CALM 0 0 0 0 1021.2 1021.2 0.2
27/02:00am 11.4 10.8 9.0 85 1.2 SSE 2 7 1 4 1021.5 1021.5 0.2
27/01:30am 11.9 11.4 9.3 84 1.3 SSE 2 7 1 4 1021.9 1021.9 0.2
27/01:00am 12.1 11.6 9.3 83 1.4 SSE 2 7 1 4 1022.1 1022.1 0.2
27/12:30am 12.7 12.7 9.9 83 1.4 CALM 0 0 0 0 1022.4 1022.4 0.2
27/12:00am 12.9 12.4 9.4 79 1.8 SSE 2 7 1 4 1022.5 1022.5 0.2
 
Date/Time
WST
Temp
°C
App
Temp
°C
Dew
Point
Rel
Hum
%
Delta-T
°C
Wind Press
QNH
hPa
Press
MSL
hPa
Rain
since 9 am
mm
Dir
 
Spd
km/h
Gust
km/h
Spd
kts
Gust
kts
26/11:30pm 12.8 11.5 9.1 78 1.9 SSE 6 7 3 4 1022.6 1022.6 0.2
26/11:00pm 12.6 11.2 8.7 77 1.9 SSE 6 9 3 5 1022.7 1022.7 0.2
26/10:30pm 13.2 11.9 9.1 76 2.1 SSE 6 9 3 5 1023.0 1023.0 0.2
26/10:00pm 13.8 12.4 9.5 75 2.2 SSE 7 9 4 5 1023.2 1023.2 0.2
26/09:30pm 14.4 12.6 9.6 73 2.5 SSE 9 13 5 7 1023.4 1023.4 0.2
26/09:00pm 14.9 12.5 10.1 73 2.5 SSE 13 19 7 10 1023.2 1023.2 0.2
26/08:30pm 14.7 13.7 10.9 78 2.0 S 7 11 4 6 1023.3 1023.3 0.2
26/08:00pm 15.1 14.2 10.7 75 2.3 S 6 9 3 5 1023.3 1023.3 0.2
26/07:30pm 15.6 14.2 10.8 73 2.6 S 9 13 5 7 1023.2 1023.2 0.2
26/07:00pm 15.7 14.4 11.1 74 2.5 SW 9 13 5 7 1022.9 1022.9 0.2
26/06:30pm 16.1 14.8 11.1 72 2.7 SW 9 13 5 7 1022.6 1022.6 0.2
26/06:00pm 16.7 15.3 11.0 69 3.0 SW 9 15 5 8 1022.4 1022.4 0.2
26/05:30pm 17.3 15.5 10.9 66 3.4 SW 11 20 6 11 1022.3 1022.3 0.2
26/05:00pm 18.3 17.0 11.1 63 3.9 SSW 9 17 5 9 1022.1 1022.1 0.2
26/04:30pm 19.1 17.1 11.4 61 4.2 SW 13 20 7 11 1022.0 1022.0 0.2
26/04:00pm 18.8 17.4 10.9 60 4.3 SSW 9 13 5 7 1021.9 1021.9 0.2
26/03:30pm 20.0 18.3 11.2 57 4.8 SW 11 17 6 9 1021.8 1021.8 0.2
26/03:00pm 19.3 17.6 11.1 59 4.5 S 11 20 6 11 1022.0 1022.0 0.2
26/02:30pm 19.2 17.3 11.7 62 4.1 SSE 13 22 7 12 1021.9 1021.9 0.2
26/02:00pm 19.8 18.1 11.3 58 4.7 SW 11 17 6 9 1022.0 1022.0 0.2
26/01:30pm 19.6 18.4 11.6 60 4.4 S 9 17 5 9 1022.4 1022.4 0.2
26/01:00pm 19.5 18.3 12.7 65 3.8 SW 11 22 6 12 1022.7 1022.7 0.0
26/12:30pm 18.4 17.1 12.4 68 3.3 S 11 17 6 9 1023.0 1023.0 0.0
26/12:00pm 18.1 17.0 12.1 68 3.3 SE 9 17 5 9 1023.4 1023.4 0.0
26/11:30am 16.7 14.5 12.0 74 2.6 S 15 24 8 13 1023.7 1023.7 0.0
26/11:00am 17.2 15.5 12.5 74 2.6 S 13 26 7 14 1023.6 1023.6 0.0
26/10:30am 16.7 15.4 13.6 82 1.7 S 13 20 7 11 1023.7 1023.7 0.0
26/10:00am 16.2 14.3 13.1 82 1.7 S 15 28 8 15 1023.5 1023.5 0.0
26/09:30am 16.7 14.9 13.2 80 2.0 S 15 24 8 13 1023.4 1023.4 0.0
26/09:00am 15.8 13.2 13.8 88 1.1 SSW 20 37 11 20 1023.3 1023.3 0.0
26/08:30am 16.9 15.6 14.9 88 1.2 SW 15 26 8 14 1022.7 1022.7 0.0
26/08:00am 17.0 16.2 15.2 89 1.0 SW 13 24 7 13 1022.4 1022.4 0.0
26/07:30am 16.7 15.8 14.9 89 1.0 WSW 13 24 7 13 1022.2 1022.2 0.0
26/07:00am 17.5 17.0 15.0 85 1.4 WSW 11 19 6 10 1021.9 1021.9 0.0
26/06:30am 17.4 17.2 14.7 84 1.6 WSW 9 19 5 10 1021.5 1021.5 0.0
26/06:00am 17.5 17.0 15.0 85 1.4 SW 11 19 6 10 1021.1 1021.1 0.0
26/05:30am 17.9 17.6 15.5 86 1.4 WSW 11 20 6 11 1020.9 1020.9 0.0
26/05:00am 18.4 17.9 14.9 80 2.0 W 11 26 6 14 1020.5 1020.5 0.0
26/04:30am 16.1 16.8 15.6 97 0.3 W 6 17 3 9 1020.3 1020.3 0.0
26/04:00am 13.0 12.6 12.4 96 0.3 NE 6 11 3 6 1019.9 1019.9 0.0
26/03:30am 12.7 13.4 12.1 96 0.3 CALM 0 0 0 0 1019.5 1019.5 0.0
26/03:00am 12.8 13.4 12.0 95 0.4 CALM 0 0 0 0 1019.7 1019.7 0.0
26/02:30am 13.4 14.2 12.6 95 0.4 CALM 0 0 0 0 1019.8 1019.8 0.0
26/02:00am 14.0 14.6 13.1 94 0.5 NNE 2 6 1 3 1019.8 1019.8 0.0
26/01:30am 14.0 13.8 12.9 93 0.6 NNE 6 7 3 4 1019.9 1019.9 0.0
26/01:00am 14.3 14.2 13.2 93 0.6 NNE 6 9 3 5 1020.0 1020.0 0.0
26/12:30am 14.3 14.0 12.7 90 0.9 NE 6 7 3 4 1020.1 1020.1 0.0
26/12:00am 14.4 13.9 12.6 89 1.0 NNE 7 9 4 5 1020.5 1020.5 0.0
 
Date/Time
WST
Temp
°C
App
Temp
°C
Dew
Point
Rel
Hum
%
Delta-T
°C
Wind Press
QNH
hPa
Press
MSL
hPa
Rain
since 9 am
mm
Dir
 
Spd
km/h
Gust
km/h
Spd
kts
Gust
kts
25/11:30pm 14.5 13.9 12.4 87 1.1 NNE 7 9 4 5 1020.8 1020.8 0.0
25/11:00pm 14.5 14.0 12.5 88 1.1 N 7 9 4 5 1021.1 1021.1 0.0
25/10:30pm 14.4 15.2 12.4 88 1.1 CALM 0 0 0 0 1021.2 1021.2 0.0
25/10:00pm 15.3 16.2 13.0 86 1.3 CALM 0 0 0 0 1021.2 1021.2 0.0
25/09:30pm 16.0 16.0 13.5 85 1.4 N 6 7 3 4 1021.4 1021.4 0.0
25/09:00pm 16.1 16.3 13.0 82 1.7 N 4 7 2 4 1021.5 1021.5 0.0
25/08:30pm 15.8 15.3 12.2 79 2.0 N 6 9 3 5 1021.3 1021.3 0.0
25/08:00pm 15.8 15.6 11.8 77 2.2 N 4 6 2 3 1021.1 1021.1 0.0
25/07:30pm 16.5 16.9 11.2 71 2.9 CALM 0 0 0 0 1020.8 1020.8 0.0

Other Formats:

Comma delimited format used in spreadsheet applications
http://www.bom.gov.au/fwo/IDW60801/IDW60801.94608.axf

JavaScript Object Notation format (JSON) in row-major order
http://www.bom.gov.au/fwo/IDW60801/IDW60801.94608.json